Netanya, Israel
Current Conditions -  °F | °C
As of 11:50 PM on Wednesday 17 Dec 2014 (Local Time) from LLSD Reporting Station
Clear Clear  
Wind Chill: 63°   Ceiling: Unl
Heat Index: 63°   Visibility: 6mi
Dew Point: 45°   Wind: 6mph
Humidity: 52%   Direction: 100°E
Pressure: 30.09"   Gusts: NA
Location:  32.33°N, 34.86°E
Report Text: LLSD 172050Z 10005KT CAVOK 17/07 Q1019
Loading
Personal Weather Stations






























Interactive Weather Map New forecast layout! Learn more

10-Day Weather Forecast

Advertisements
Track Severe Weather on mobile